Time;durP1;ratioP1;P1;durP2;ratioP2;P2;SDS_P1;SDS_P2;PMS_P1;PMS_P2;Temp;Humidity;BMP_temperature;BMP_pressure;BME280_temperature;BME280_humidity;BME280_pressure;Samples;Min_cycle;Max_cycle;Signal;HPM_P1;HPM_P2
2021/12/16 00:03:12;;;;;;;31.27;11.10;;;3.30;99.90;;;;;;5084877;28;20484;-67
2021/12/16 00:08:29;;;;;;;18.70;9.33;;;3.30;99.90;;;;;;5089142;28;20438;-67
2021/12/16 00:11:04;;;;;;;23.17;10.13;;;3.30;99.90;;;;;;5090247;28;20507;-67
2021/12/16 00:30:11;;;;;;;23.03;9.07;;;3.30;99.90;;;;;;5083276;28;20485;-67
2021/12/16 00:35:04;;;;;;;19.10;9.40;;;3.30;99.90;;;;;;5091242;28;20453;-67
2021/12/16 00:37:30;;;;;;;17.73;8.40;;;3.20;99.90;;;;;;5087602;28;20826;-67
2021/12/16 00:39:56;;;;;;;18.33;7.60;;;3.20;99.90;;;;;;5088235;28;20438;-67
2021/12/16 00:45:28;;;;;;;22.00;9.57;;;3.20;99.90;;;;;;5092816;28;20882;-67
2021/12/16 00:47:58;;;;;;;18.47;9.30;;;3.10;99.90;;;;;;5089577;28;20547;-67
2021/12/16 00:58:10;;;;;;;15.50;6.70;;;3.10;99.90;;;;;;5089123;28;20454;-67
2021/12/16 01:00:37;;;;;;;20.60;8.30;;;3.10;99.90;;;;;;5089408;28;20451;-66
2021/12/16 01:06:46;;;;;;;13.30;6.70;;;3.00;99.90;;;;;;5064769;28;20838;-66
2021/12/16 01:09:14;;;;;;;15.70;7.80;;;3.00;99.90;;;;;;5064804;28;20443;-67
2021/12/16 01:49:55;;;;;;;18.93;8.47;;;3.10;99.90;;;;;;5090458;28;20523;-65
2021/12/16 01:55:11;;;;;;;12.50;7.00;;;3.10;99.90;;;;;;5094659;28;20448;-65
2021/12/16 01:57:53;;;;;;;17.57;8.80;;;3.10;99.90;;;;;;5079204;28;20817;-65
2021/12/16 02:00:27;;;;;;;18.63;8.23;;;3.10;99.90;;;;;;5087572;28;20502;-67
2021/12/16 02:03:00;;;;;;;20.77;7.83;;;3.10;99.90;;;;;;5092105;28;20461;-67
2021/12/16 02:10:35;;;;;;;22.53;7.40;;;3.10;99.90;;;;;;5090995;28;20439;-67
2021/12/16 02:13:30;;;;;;;14.23;6.33;;;3.10;99.90;;;;;;5086923;28;20928;-67
2021/12/16 02:37:36;;;;;;;13.60;6.63;;;3.10;99.90;;;;;;5088134;28;20474;-67
2021/12/16 02:40:05;;;;;;;10.87;6.20;;;3.10;99.90;;;;;;5085912;28;20489;-67
2021/12/16 02:42:40;;;;;;;14.73;5.33;;;3.00;99.90;;;;;;5084731;28;20833;-67
2021/12/16 02:50:39;;;;;;;14.13;6.70;;;3.10;99.90;;;;;;5078304;28;20786;-67
2021/12/16 02:53:05;;;;;;;15.40;6.57;;;3.10;99.90;;;;;;5090441;28;20446;-67
2021/12/16 02:55:31;;;;;;;17.27;7.20;;;3.20;99.90;;;;;;5079035;28;20200;-67
2021/12/16 02:58:00;;;;;;;19.43;7.47;;;3.10;99.90;;;;;;5088143;28;20188;-67
2021/12/16 03:00:29;;;;;;;16.63;7.70;;;3.10;99.90;;;;;;5086160;28;20200;-67
2021/12/16 03:02:55;;;;;;;19.50;7.87;;;3.10;99.90;;;;;;5084469;28;20462;-67
2021/12/16 03:05:22;;;;;;;16.47;7.47;;;3.10;99.90;;;;;;5082791;28;20433;-67
2021/12/16 03:07:52;;;;;;;19.60;7.77;;;3.10;99.90;;;;;;5079873;28;20199;-67
2021/12/16 03:18:13;;;;;;;21.50;9.17;;;3.20;99.90;;;;;;5076269;28;20430;-67
2021/12/16 03:20:47;;;;;;;15.00;7.43;;;3.10;99.90;;;;;;5078887;28;20521;-67
2021/12/16 03:23:42;;;;;;;14.87;7.03;;;3.10;99.90;;;;;;5082884;28;20576;-67
2021/12/16 03:31:56;;;;;;;15.93;7.50;;;3.10;99.90;;;;;;5090004;28;20439;-67
2021/12/16 03:36:47;;;;;;;20.67;10.00;;;3.10;99.90;;;;;;5086149;28;20443;-67
2021/12/16 03:39:14;;;;;;;28.40;8.63;;;3.20;99.90;;;;;;5085766;28;20433;-67
2021/12/16 03:41:40;;;;;;;22.90;9.57;;;3.20;99.90;;;;;;5089420;27;20855;-67
2021/12/16 03:44:11;;;;;;;19.10;7.90;;;3.20;99.90;;;;;;5090653;28;20525;-67
2021/12/16 03:46:41;;;;;;;19.70;8.93;;;3.20;99.90;;;;;;5088315;28;20268;-67
2021/12/16 03:49:17;;;;;;;16.40;7.70;;;3.20;99.90;;;;;;5084083;28;20453;-67
2021/12/16 03:51:45;;;;;;;19.83;8.10;;;3.10;99.90;;;;;;5085911;28;20449;-66
2021/12/16 03:54:19;;;;;;;17.33;6.30;;;3.10;99.90;;;;;;5088563;28;20473;-67
2021/12/16 03:56:45;;;;;;;15.23;8.13;;;3.20;99.90;;;;;;5086417;28;23187;-67
2021/12/16 03:59:14;;;;;;;15.90;7.93;;;3.10;99.90;;;;;;5084676;28;20509;-67
2021/12/16 04:01:40;;;;;;;15.47;6.87;;;3.20;99.90;;;;;;5091197;28;20458;-67
2021/12/16 04:04:06;;;;;;;13.50;6.40;;;3.10;99.90;;;;;;5085013;28;20556;-67
2021/12/16 04:06:35;;;;;;;15.07;6.80;;;3.10;99.90;;;;;;5081630;28;20191;-67
2021/12/16 04:09:04;;;;;;;22.63;8.67;;;3.20;99.90;;;;;;5090813;28;20209;-67
2021/12/16 04:11:39;;;;;;;12.43;6.10;;;3.10;99.90;;;;;;5093803;28;20434;-67
2021/12/16 04:14:07;;;;;;;10.97;5.97;;;3.10;99.90;;;;;;5081807;28;20507;-67
2021/12/16 04:16:44;;;;;;;14.00;7.03;;;3.20;99.90;;;;;;5081400;28;20471;-67
2021/12/16 04:19:13;;;;;;;12.60;6.77;;;3.10;99.90;;;;;;5086591;28;20756;-67
2021/12/16 04:21:42;;;;;;;15.40;6.95;;;3.20;99.90;;;;;;5089282;28;20441;-67
2021/12/16 04:24:09;;;;;;;15.93;7.10;;;3.10;99.90;;;;;;5089763;28;20565;-67
2021/12/16 04:26:37;;;;;;;11.20;6.30;;;3.10;99.90;;;;;;5084500;28;20449;-67
2021/12/16 04:29:04;;;;;;;18.80;7.87;;;3.10;99.90;;;;;;5085524;28;20464;-67
2021/12/16 04:31:31;;;;;;;16.37;6.97;;;3.10;99.90;;;;;;5088159;28;20580;-67
2021/12/16 04:33:57;;;;;;;15.27;7.17;;;3.10;99.90;;;;;;5089238;28;20441;-67
2021/12/16 04:36:23;;;;;;;19.30;7.57;;;3.10;99.90;;;;;;5080532;28;20437;-67
2021/12/16 04:38:49;;;;;;;14.93;6.93;;;3.20;99.90;;;;;;5083855;28;21180;-67
2021/12/16 04:41:17;;;;;;;14.57;6.20;;;3.10;99.90;;;;;;5089821;28;20537;-67
2021/12/16 04:43:54;;;;;;;14.07;6.70;;;3.10;99.90;;;;;;5085026;28;21429;-66
2021/12/16 04:46:25;;;;;;;17.43;8.07;;;3.10;99.90;;;;;;5086508;28;21050;-67
2021/12/16 04:48:54;;;;;;;23.90;8.40;;;3.00;99.90;;;;;;5084017;28;20418;-67
2021/12/16 04:51:22;;;;;;;29.60;10.27;;;3.00;99.90;;;;;;5091710;28;20480;-67
2021/12/16 04:53:49;;;;;;;23.80;8.77;;;3.00;99.90;;;;;;5092346;28;20950;-67
2021/12/16 04:56:16;;;;;;;23.63;9.10;;;3.00;99.90;;;;;;5095919;28;20493;-67
2021/12/16 04:58:45;;;;;;;20.43;8.23;;;3.00;99.90;;;;;;5082727;28;20531;-67
2021/12/16 05:01:11;;;;;;;16.07;8.27;;;3.10;99.90;;;;;;5079005;28;20451;-67
2021/12/16 05:03:37;;;;;;;19.53;8.10;;;3.00;99.90;;;;;;5084417;28;20462;-67
2021/12/16 05:06:04;;;;;;;14.30;7.13;;;3.00;99.90;;;;;;5087004;28;20657;-67
2021/12/16 05:08:31;;;;;;;21.70;8.10;;;3.10;99.90;;;;;;5087375;28;20193;-67
2021/12/16 05:10:59;;;;;;;15.53;8.23;;;3.00;99.90;;;;;;5089351;28;20435;-67
2021/12/16 05:13:27;;;;;;;21.33;8.47;;;3.00;99.90;;;;;;5084392;28;20448;-67
2021/12/16 05:15:55;;;;;;;15.30;7.13;;;3.00;99.90;;;;;;5090755;28;20770;-68
2021/12/16 05:18:26;;;;;;;16.27;7.07;;;3.10;99.90;;;;;;5085858;28;20438;-67
2021/12/16 05:20:52;;;;;;;18.77;6.77;;;3.10;99.90;;;;;;5090195;28;20453;-67
2021/12/16 05:28:29;;;;;;;22.40;8.30;;;3.10;99.90;;;;;;5087781;28;20472;-67
2021/12/16 05:30:56;;;;;;;22.13;9.10;;;3.00;99.90;;;;;;5087919;28;20426;-67
2021/12/16 05:33:23;;;;;;;18.77;8.10;;;3.10;99.90;;;;;;5087382;28;20736;-67
2021/12/16 05:35:51;;;;;;;15.60;7.17;;;3.10;99.90;;;;;;5090342;28;20431;-67
2021/12/16 05:38:17;;;;;;;18.57;8.00;;;3.10;99.90;;;;;;5089044;28;20446;-67
2021/12/16 05:40:43;;;;;;;17.60;9.07;;;3.10;99.90;;;;;;5086955;28;20938;-67
2021/12/16 05:43:13;;;;;;;30.43;8.80;;;3.10;99.90;;;;;;5082036;28;20239;-68
2021/12/16 05:45:39;;;;;;;21.97;9.47;;;3.20;99.90;;;;;;5081699;28;20209;-67
2021/12/16 05:48:09;;;;;;;20.20;8.50;;;3.20;99.90;;;;;;5086446;28;20465;-67
2021/12/16 05:50:40;;;;;;;18.57;8.20;;;3.10;99.90;;;;;;5083796;28;20833;-67
2021/12/16 05:53:06;;;;;;;18.63;8.03;;;3.10;99.90;;;;;;5079565;28;20538;-67
2021/12/16 05:55:32;;;;;;;21.07;9.20;;;3.10;99.90;;;;;;5082821;28;20490;-67
2021/12/16 05:58:01;;;;;;;20.10;9.00;;;3.20;99.90;;;;;;5090396;28;20831;-67
2021/12/16 06:00:31;;;;;;;22.50;9.70;;;3.20;99.90;;;;;;5088753;28;20556;-67
2021/12/16 06:02:57;;;;;;;22.27;10.67;;;3.10;99.90;;;;;;5087214;28;20461;-68
2021/12/16 06:05:23;;;;;;;24.23;10.80;;;3.20;99.90;;;;;;5078736;28;20442;-68
2021/12/16 06:07:49;;;;;;;28.33;8.97;;;3.20;99.90;;;;;;5096071;28;20180;-67
2021/12/16 06:12:53;;;;;;;21.00;8.87;;;3.20;99.90;;;;;;5081619;28;21008;-68
2021/12/16 06:15:39;;;;;;;29.00;9.13;;;3.20;99.90;;;;;;5085777;28;20442;-67
2021/12/16 06:29:00;;;;;;;20.07;8.73;;;3.10;99.90;;;;;;5088750;28;20827;-67
2021/12/16 06:31:26;;;;;;;27.23;9.80;;;3.20;99.90;;;;;;5086188;28;20518;-67
2021/12/16 06:33:52;;;;;;;23.43;8.83;;;3.20;99.90;;;;;;5090248;28;20603;-68
2021/12/16 06:36:18;;;;;;;15.70;7.23;;;3.20;99.90;;;;;;5093890;28;20191;-68
2021/12/16 06:38:43;;;;;;;30.53;11.00;;;3.20;99.90;;;;;;5082250;28;20711;-68
2021/12/16 06:41:09;;;;;;;20.93;9.17;;;3.20;99.90;;;;;;5092557;27;20669;-68
2021/12/16 06:43:36;;;;;;;21.20;8.43;;;3.20;99.90;;;;;;5086506;28;20201;-68
2021/12/16 06:46:05;;;;;;;27.50;9.40;;;3.20;99.90;;;;;;5096468;28;20453;-67
2021/12/16 06:48:34;;;;;;;28.27;9.13;;;3.20;99.90;;;;;;5087879;28;20433;-68
2021/12/16 06:51:07;;;;;;;28.30;11.50;;;3.20;99.90;;;;;;5083694;28;20426;-68
2021/12/16 06:53:47;;;;;;;39.80;11.20;;;3.20;99.90;;;;;;5087981;28;20427;-67
2021/12/16 06:56:26;;;;;;;32.80;11.43;;;3.20;99.90;;;;;;5088739;28;20538;-67
2021/12/16 06:59:18;;;;;;;22.93;9.53;;;3.20;99.90;;;;;;5090001;28;20444;-67
2021/12/16 07:01:49;;;;;;;26.90;10.20;;;3.20;99.90;;;;;;5078080;28;20823;-67
2021/12/16 07:04:18;;;;;;;20.50;9.53;;;3.20;99.90;;;;;;5086502;28;20445;-67
2021/12/16 07:06:44;;;;;;;23.37;9.27;;;3.20;99.90;;;;;;5097479;28;20427;-67
2021/12/16 07:09:16;;;;;;;24.03;8.97;;;3.20;99.90;;;;;;5087496;28;20508;-67
2021/12/16 07:11:45;;;;;;;22.10;7.47;;;3.20;99.90;;;;;;5097797;28;20501;-67
2021/12/16 07:14:15;;;;;;;24.23;7.77;;;3.20;99.90;;;;;;5095701;28;20425;-68
2021/12/16 07:16:49;;;;;;;22.67;8.57;;;3.20;99.90;;;;;;5096935;28;20426;-68
2021/12/16 07:19:15;;;;;;;20.90;8.23;;;3.20;99.90;;;;;;5088751;28;20446;-67
2021/12/16 07:21:43;;;;;;;21.00;8.97;;;3.20;99.90;;;;;;5106825;28;20543;-67
2021/12/16 07:24:13;;;;;;;17.30;7.93;;;3.10;99.90;;;;;;5105079;28;20464;-67
2021/12/16 07:26:39;;;;;;;16.20;7.60;;;3.20;99.90;;;;;;5102549;28;20433;-67
2021/12/16 07:29:06;;;;;;;19.03;8.70;;;3.10;99.90;;;;;;5102647;28;20647;-67
2021/12/16 07:31:33;;;;;;;22.90;8.63;;;3.10;99.90;;;;;;5103183;28;20440;-67
2021/12/16 07:34:00;;;;;;;22.73;9.43;;;3.20;99.90;;;;;;5108571;28;20418;-68
2021/12/16 07:36:27;;;;;;;25.23;9.63;;;3.10;99.90;;;;;;5099960;28;20437;-68
2021/12/16 07:38:53;;;;;;;18.80;9.33;;;3.10;99.90;;;;;;5098594;28;20905;-68
2021/12/16 07:41:24;;;;;;;24.57;8.70;;;3.20;99.90;;;;;;5101045;28;20434;-67
2021/12/16 07:43:58;;;;;;;21.53;8.93;;;3.20;99.90;;;;;;5089349;28;20512;-67
2021/12/16 07:46:24;;;;;;;36.77;11.47;;;3.20;99.90;;;;;;5087146;28;20418;-67
2021/12/16 07:48:49;;;;;;;21.83;8.40;;;3.20;99.90;;;;;;5083186;28;20909;-67
2021/12/16 07:51:16;;;;;;;18.20;8.30;;;3.20;99.90;;;;;;5089414;28;20422;-66
2021/12/16 07:53:42;;;;;;;20.00;8.77;;;3.20;99.90;;;;;;5089321;28;20272;-66
2021/12/16 07:56:08;;;;;;;21.33;8.50;;;3.20;99.90;;;;;;5097461;28;20473;-66
2021/12/16 07:58:35;;;;;;;19.50;8.43;;;3.20;99.90;;;;;;5085044;28;20791;-66
2021/12/16 08:01:01;;;;;;;23.20;9.20;;;3.20;99.90;;;;;;5102704;28;20453;-66
2021/12/16 08:03:34;;;;;;;27.43;10.53;;;3.20;99.90;;;;;;5099197;28;20824;-67
2021/12/16 08:06:05;;;;;;;30.50;9.97;;;3.30;99.90;;;;;;5095198;28;20422;-67
2021/12/16 08:08:32;;;;;;;26.37;9.80;;;3.30;99.90;;;;;;5096947;28;20414;-67
2021/12/16 08:10:59;;;;;;;25.73;9.70;;;3.30;99.90;;;;;;5088905;28;20432;-67
2021/12/16 08:13:25;;;;;;;50.10;17.93;;;3.40;99.90;;;;;;5100473;28;20442;-67
2021/12/16 08:15:51;;;;;;;27.20;9.73;;;3.30;99.90;;;;;;5098544;27;20434;-67
2021/12/16 08:18:17;;;;;;;21.10;8.67;;;3.40;99.90;;;;;;5100362;28;20425;-67
2021/12/16 08:20:43;;;;;;;29.30;12.33;;;3.30;99.90;;;;;;5099316;28;20939;-66
2021/12/16 08:23:10;;;;;;;23.73;10.90;;;3.30;99.90;;;;;;5111797;28;20254;-67
2021/12/16 08:25:37;;;;;;;24.13;11.80;;;3.40;99.90;;;;;;5094640;28;20425;-67
2021/12/16 08:28:04;;;;;;;26.47;11.23;;;3.40;99.90;;;;;;5094120;28;20425;-66
2021/12/16 08:30:34;;;;;;;27.93;8.80;;;3.40;99.90;;;;;;5098438;28;21244;-66
2021/12/16 08:33:04;;;;;;;23.27;9.80;;;3.40;99.90;;;;;;5106107;28;20426;-66
2021/12/16 08:35:30;;;;;;;23.30;9.20;;;3.40;99.90;;;;;;5093180;28;20418;-67
2021/12/16 08:37:55;;;;;;;33.77;10.40;;;3.40;99.90;;;;;;5091005;28;20457;-67
2021/12/16 08:40:22;;;;;;;22.27;10.00;;;3.40;99.90;;;;;;5102654;28;20187;-67
2021/12/16 08:42:49;;;;;;;19.27;8.80;;;3.40;99.90;;;;;;5104906;28;20207;-67
2021/12/16 08:45:20;;;;;;;19.70;8.00;;;3.50;99.90;;;;;;5092151;28;20406;-66
2021/12/16 08:47:46;;;;;;;26.57;11.10;;;3.50;99.90;;;;;;5109293;28;20471;-67
2021/12/16 08:50:14;;;;;;;16.53;6.43;;;3.50;99.90;;;;;;5108279;28;20414;-66
2021/12/16 08:52:40;;;;;;;26.23;8.67;;;3.50;99.90;;;;;;5096928;28;20536;-66
2021/12/16 08:55:08;;;;;;;22.93;9.40;;;3.50;99.90;;;;;;5111218;28;20426;-66
2021/12/16 08:57:34;;;;;;;25.23;9.03;;;3.60;99.90;;;;;;5087574;28;20606;-67
2021/12/16 08:59:59;;;;;;;17.30;7.27;;;3.60;99.90;;;;;;5103918;28;20452;-67
2021/12/16 09:02:25;;;;;;;22.37;9.97;;;3.60;99.90;;;;;;5102791;28;20796;-67
2021/12/16 09:04:51;;;;;;;24.30;8.47;;;3.60;99.90;;;;;;5086983;28;20520;-67
2021/12/16 09:07:17;;;;;;;21.60;9.07;;;3.60;99.90;;;;;;5104316;28;20519;-67
2021/12/16 09:09:45;;;;;;;23.60;8.87;;;3.60;99.90;;;;;;5103960;28;20866;-67
2021/12/16 09:14:59;;;;;;;28.17;10.10;;;3.70;99.90;;;;;;5102991;28;20485;-67
2021/12/16 09:17:26;;;;;;;15.93;8.53;;;3.70;99.90;;;;;;5101936;28;20449;-67
2021/12/16 09:19:53;;;;;;;19.50;8.07;;;3.70;99.90;;;;;;5095523;28;20421;-67
2021/12/16 09:22:24;;;;;;;20.50;9.17;;;3.70;99.90;;;;;;5094751;28;20505;-67
2021/12/16 09:24:51;;;;;;;17.60;8.00;;;3.80;99.90;;;;;;5091420;28;20420;-67
2021/12/16 09:27:17;;;;;;;16.67;7.50;;;3.80;99.90;;;;;;5102621;28;20467;-67
2021/12/16 09:29:44;;;;;;;19.90;8.17;;;3.80;99.90;;;;;;5089946;28;20411;-67
2021/12/16 09:32:10;;;;;;;16.30;6.80;;;3.90;99.90;;;;;;5099427;28;20414;-68
2021/12/16 09:34:37;;;;;;;26.40;8.60;;;3.90;99.90;;;;;;5096033;28;20413;-67
2021/12/16 09:37:04;;;;;;;20.00;6.97;;;4.00;99.90;;;;;;5102155;28;20421;-67
2021/12/16 09:39:31;;;;;;;14.73;6.17;;;4.00;99.90;;;;;;5109799;28;20424;-67
2021/12/16 09:41:57;;;;;;;12.40;5.90;;;4.10;99.90;;;;;;5106212;28;20889;-66
2021/12/16 09:44:24;;;;;;;17.20;6.97;;;4.10;99.90;;;;;;5098744;28;20428;-67
2021/12/16 09:46:53;;;;;;;15.27;5.90;;;4.10;99.90;;;;;;5098113;28;20188;-67
2021/12/16 09:49:19;;;;;;;18.53;7.80;;;4.20;99.90;;;;;;5100674;28;20895;-67
2021/12/16 09:51:47;;;;;;;19.23;6.73;;;4.40;99.90;;;;;;5093760;28;20423;-67
2021/12/16 09:54:17;;;;;;;9.60;4.47;;;4.30;99.90;;;;;;5098410;28;20418;-67
2021/12/16 09:56:46;;;;;;;11.40;4.70;;;4.30;99.90;;;;;;5102210;28;20941;-66
2021/12/16 09:59:14;;;;;;;14.53;5.57;;;4.40;99.90;;;;;;5094957;28;20462;-67
2021/12/16 10:01:41;;;;;;;13.80;5.50;;;4.40;99.90;;;;;;5105040;28;20425;-67
2021/12/16 10:04:11;;;;;;;12.13;5.50;;;4.40;99.90;;;;;;5094958;28;20461;-67
2021/12/16 10:06:38;;;;;;;12.17;5.03;;;4.40;99.90;;;;;;5089668;28;21035;-67
2021/12/16 10:09:06;;;;;;;19.50;5.70;;;4.50;99.90;;;;;;5104646;28;20429;-67
2021/12/16 10:11:34;;;;;;;10.30;4.77;;;4.50;99.90;;;;;;5091196;28;20422;-69
2021/12/16 10:19:24;;;;;;;13.00;5.17;;;4.60;99.90;;;;;;5091819;28;20495;-69
2021/12/16 10:21:51;;;;;;;13.40;5.70;;;4.60;99.90;;;;;;5108311;28;20757;-69
2021/12/16 10:24:32;;;;;;;13.77;5.30;;;4.70;99.90;;;;;;5103014;28;20500;-69
2021/12/16 10:27:14;;;;;;;13.70;4.53;;;4.70;99.90;;;;;;5087908;28;20421;-68
2021/12/16 10:29:45;;;;;;;16.57;6.43;;;4.70;99.90;;;;;;5101503;28;20990;-69
2021/12/16 10:32:38;;;;;;;10.40;4.70;;;4.80;99.90;;;;;;5100512;28;20414;-69
2021/12/16 10:35:26;;;;;;;14.83;4.97;;;4.80;99.90;;;;;;5098159;28;20524;-69
2021/12/16 10:37:56;;;;;;;17.37;5.40;;;4.80;99.90;;;;;;5097667;28;20418;-69
2021/12/16 10:40:43;;;;;;;14.80;5.90;;;4.90;99.90;;;;;;5095644;28;20780;-69
2021/12/16 10:43:26;;;;;;;10.10;5.10;;;4.90;99.90;;;;;;5100826;28;20918;-69
2021/12/16 10:46:16;;;;;;;10.17;4.63;;;4.90;99.90;;;;;;5100998;28;20421;-69
2021/12/16 10:48:47;;;;;;;10.50;5.00;;;4.90;99.90;;;;;;5089773;28;20420;-69
2021/12/16 10:51:18;;;;;;;12.10;5.57;;;4.90;99.90;;;;;;5100717;28;20417;-69
2021/12/16 10:53:50;;;;;;;10.07;5.50;;;5.00;99.90;;;;;;5107304;28;20762;-69
2021/12/16 10:56:21;;;;;;;10.20;4.47;;;5.00;99.90;;;;;;5093116;28;20418;-69
2021/12/16 10:58:55;;;;;;;11.87;4.40;;;5.10;99.90;;;;;;5084988;28;20456;-68
2021/12/16 11:01:48;;;;;;;15.23;5.40;;;5.10;99.90;;;;;;5089275;28;20441;-68
2021/12/16 11:04:22;;;;;;;9.87;4.10;;;5.10;99.90;;;;;;5092435;28;20484;-68
2021/12/16 11:07:15;;;;;;;12.50;5.20;;;5.10;99.90;;;;;;5090115;28;20450;-69
2021/12/16 11:09:46;;;;;;;17.77;6.07;;;5.10;99.90;;;;;;5097874;28;20888;-69
2021/12/16 11:12:17;;;;;;;16.03;6.73;;;5.10;99.90;;;;;;5100313;28;20431;-69
2021/12/16 11:14:55;;;;;;;15.40;6.80;;;5.10;99.90;;;;;;5097529;28;20888;-69
2021/12/16 11:17:24;;;;;;;13.57;5.73;;;5.20;99.90;;;;;;5096209;28;20452;-69
2021/12/16 11:19:59;;;;;;;12.73;5.20;;;5.30;99.90;;;;;;5098633;28;20528;-69
2021/12/16 11:22:31;;;;;;;15.33;6.93;;;5.10;99.90;;;;;;5095705;28;20494;-69
2021/12/16 11:25:10;;;;;;;15.30;6.13;;;5.10;99.90;;;;;;5105566;28;20414;-69
2021/12/16 11:27:36;;;;;;;19.10;7.77;;;5.20;99.90;;;;;;5095854;28;20519;-69
2021/12/16 11:30:19;;;;;;;17.37;7.40;;;5.10;99.90;;;;;;5099972;28;20421;-69
2021/12/16 11:32:49;;;;;;;18.53;6.80;;;5.20;99.90;;;;;;5099656;28;20429;-69
2021/12/16 11:36:06;;;;;;;18.67;6.13;;;5.20;99.90;;;;;;5101011;28;20848;-69
2021/12/16 11:38:34;;;;;;;19.10;7.93;;;5.20;99.90;;;;;;5088984;28;20431;-69
2021/12/16 11:41:09;;;;;;;18.00;7.67;;;5.20;99.90;;;;;;5095256;28;21000;-69
2021/12/16 11:43:55;;;;;;;21.30;7.67;;;5.30;99.90;;;;;;5100368;28;20460;-69
2021/12/16 11:46:23;;;;;;;18.57;7.57;;;5.30;99.90;;;;;;5088445;28;20520;-69
2021/12/16 11:48:52;;;;;;;11.90;5.70;;;5.20;99.90;;;;;;5112231;28;20429;-69
2021/12/16 11:51:40;;;;;;;18.50;8.17;;;5.30;99.90;;;;;;5099801;28;20456;-69
2021/12/16 11:54:16;;;;;;;11.70;6.47;;;5.30;99.90;;;;;;5101202;28;20428;-69
2021/12/16 11:56:55;;;;;;;10.93;6.17;;;5.30;99.90;;;;;;5099309;28;20417;-69
2021/12/16 11:59:30;;;;;;;12.40;6.40;;;5.20;99.90;;;;;;5098242;28;20914;-68
2021/12/16 12:01:58;;;;;;;13.30;5.97;;;5.20;99.90;;;;;;5098457;28;21215;-69
2021/12/16 12:04:34;;;;;;;22.63;6.37;;;5.20;99.90;;;;;;5105790;28;20436;-69
2021/12/16 12:07:09;;;;;;;15.70;7.20;;;5.20;99.90;;;;;;5103411;28;20524;-69
2021/12/16 12:09:39;;;;;;;15.83;5.80;;;5.20;99.90;;;;;;5096256;28;20905;-69
2021/12/16 12:12:06;;;;;;;11.33;5.73;;;5.20;99.90;;;;;;5105326;28;20424;-69
2021/12/16 12:14:35;;;;;;;15.83;6.80;;;5.40;99.90;;;;;;5099065;28;20418;-69
2021/12/16 12:17:15;;;;;;;15.30;6.23;;;5.40;99.90;;;;;;5101283;28;20436;-69
2021/12/16 12:19:45;;;;;;;12.60;5.60;;;5.40;99.90;;;;;;5098650;28;20426;-69
2021/12/16 12:22:11;;;;;;;12.07;5.70;;;5.50;99.90;;;;;;5104420;28;20767;-69
2021/12/16 12:24:40;;;;;;;9.10;5.23;;;5.50;99.90;;;;;;5101077;28;20415;-67
2021/12/16 12:27:11;;;;;;;14.70;6.27;;;5.50;99.90;;;;;;5105244;28;20492;-67
2021/12/16 12:29:44;;;;;;;12.40;5.83;;;5.60;99.90;;;;;;5099768;28;20416;-66
2021/12/16 12:32:12;;;;;;;14.57;5.90;;;5.60;99.90;;;;;;5108764;28;20443;-67
2021/12/16 12:34:41;;;;;;;15.80;6.53;;;5.60;99.90;;;;;;5105350;28;20837;-67
2021/12/16 12:37:10;;;;;;;18.03;6.67;;;5.60;99.90;;;;;;5093746;28;20414;-67
2021/12/16 12:39:40;;;;;;;13.63;6.40;;;5.60;99.90;;;;;;5095156;28;20418;-67
2021/12/16 12:42:07;;;;;;;14.77;6.03;;;5.50;99.90;;;;;;5097894;28;20416;-67
2021/12/16 12:44:33;;;;;;;14.40;6.30;;;5.50;99.90;;;;;;5104055;28;20417;-67
2021/12/16 12:47:12;;;;;;;16.33;6.63;;;5.50;99.90;;;;;;5093681;27;20946;-68
2021/12/16 12:49:38;;;;;;;17.70;4.93;;;5.50;99.90;;;;;;5099154;28;20914;-68
2021/12/16 12:52:10;;;;;;;18.03;8.30;;;5.50;99.90;;;;;;5105902;27;20502;-68
2021/12/16 12:54:39;;;;;;;21.50;6.87;;;5.40;99.90;;;;;;5103315;28;21033;-68
2021/12/16 12:57:26;;;;;;;11.93;6.23;;;5.50;99.90;;;;;;5084682;28;20482;-68
2021/12/16 12:59:53;;;;;;;15.10;5.93;;;5.50;99.90;;;;;;5098171;28;20437;-68
2021/12/16 13:02:28;;;;;;;12.83;5.23;;;5.40;99.90;;;;;;5101326;28;20501;-68
2021/12/16 13:04:58;;;;;;;15.90;5.40;;;5.40;99.90;;;;;;5101874;28;20741;-69
2021/12/16 13:08:00;;;;;;;12.30;5.93;;;5.40;99.90;;;;;;5090170;28;20433;-69
2021/12/16 13:10:47;;;;;;;12.93;5.90;;;5.40;99.90;;;;;;5098176;28;20447;-69
2021/12/16 13:15:57;;;;;;;12.83;6.03;;;5.50;99.90;;;;;;5099670;28;20524;-69
2021/12/16 13:24:03;;;;;;;11.73;4.90;;;5.60;99.90;;;;;;5100537;28;20557;-69
2021/12/16 13:26:42;;;;;;;17.33;6.50;;;5.60;99.90;;;;;;5088437;28;20429;-69
2021/12/16 13:32:10;;;;;;;11.30;4.27;;;5.70;99.90;;;;;;5091678;28;20925;-69
2021/12/16 13:34:47;;;;;;;18.93;5.07;;;5.60;99.90;;;;;;5102880;28;20770;-69
2021/12/16 13:37:22;;;;;;;8.10;3.87;;;5.60;99.90;;;;;;5105163;28;20886;-69
2021/12/16 13:39:53;;;;;;;10.07;4.60;;;5.60;99.90;;;;;;5096500;28;20477;-69
2021/12/16 13:42:22;;;;;;;9.57;5.17;;;5.60;99.90;;;;;;5109782;27;20425;-69
2021/12/16 13:45:08;;;;;;;7.37;3.87;;;5.60;99.90;;;;;;5100382;28;20410;-67
2021/12/16 14:05:05;;;;;;;10.20;4.80;;;5.70;99.90;;;;;;5103127;27;20427;-66
2021/12/16 14:07:56;;;;;;;16.03;6.70;;;5.70;99.90;;;;;;5092754;28;20423;-66
2021/12/16 14:49:49;;;;;;;7.63;4.40;;;5.50;99.90;;;;;;5101099;28;20425;-67
2021/12/16 14:52:22;;;;;;;20.70;5.07;;;5.50;99.90;;;;;;5103014;28;20787;-68
2021/12/16 14:55:01;;;;;;;11.37;5.47;;;5.60;99.90;;;;;;5101120;28;20826;-67
2021/12/16 14:57:48;;;;;;;14.50;5.90;;;5.50;99.90;;;;;;5087598;28;20491;-67
2021/12/16 15:00:18;;;;;;;9.40;4.73;;;5.50;99.90;;;;;;5093831;28;20437;-68
2021/12/16 15:02:47;;;;;;;15.10;5.53;;;5.50;99.90;;;;;;5091726;28;20473;-68
2021/12/16 15:05:23;;;;;;;7.30;4.10;;;5.40;99.90;;;;;;5081646;28;20430;-68
2021/12/16 15:07:49;;;;;;;11.33;4.60;;;5.40;99.90;;;;;;5097190;28;20426;-68
2021/12/16 15:10:16;;;;;;;12.90;6.30;;;5.40;99.90;;;;;;5104931;28;20417;-68
2021/12/16 15:12:51;;;;;;;10.47;4.70;;;5.30;99.90;;;;;;5094262;28;20819;-68
2021/12/16 15:15:27;;;;;;;9.80;3.70;;;5.30;99.90;;;;;;5094098;28;21044;-68
2021/12/16 15:42:48;;;;;;;6.80;3.90;;;4.80;99.90;;;;;;5097784;28;20989;-68
2021/12/16 15:45:15;;;;;;;13.40;5.33;;;4.70;99.90;;;;;;5090263;28;20509;-68
2021/12/16 15:47:44;;;;;;;12.10;4.83;;;4.60;99.90;;;;;;5092746;28;20505;-68
2021/12/16 15:50:12;;;;;;;10.80;4.50;;;4.60;99.90;;;;;;5102453;28;20429;-68
2021/12/16 15:52:50;;;;;;;10.97;5.90;;;4.50;99.90;;;;;;5091074;28;20440;-68
2021/12/16 15:55:44;;;;;;;12.60;4.87;;;4.50;99.90;;;;;;5089508;28;20744;-67
2021/12/16 15:58:18;;;;;;;12.07;4.90;;;4.50;99.90;;;;;;5096579;28;20688;-68
2021/12/16 16:00:47;;;;;;;9.23;4.20;;;4.40;99.90;;;;;;5077045;28;20554;-68
2021/12/16 16:03:14;;;;;;;6.67;3.80;;;4.30;99.90;;;;;;5080309;28;20473;-68
2021/12/16 16:05:44;;;;;;;17.10;5.20;;;4.20;99.90;;;;;;5100731;28;20937;-68
2021/12/16 16:08:12;;;;;;;14.43;4.50;;;4.10;99.90;;;;;;5092077;28;20449;-68
2021/12/16 16:10:40;;;;;;;12.50;5.47;;;4.00;99.90;;;;;;5099349;28;21103;-68
2021/12/16 16:13:18;;;;;;;18.33;5.67;;;4.00;99.90;;;;;;5097478;28;20848;-68
2021/12/16 16:15:48;;;;;;;9.20;4.90;;;3.90;99.90;;;;;;5083102;28;20513;-68
2021/12/16 16:21:19;;;;;;;13.20;5.70;;;3.90;99.90;;;;;;5085863;28;20434;-67
2021/12/16 16:23:49;;;;;;;12.27;4.70;;;3.80;99.90;;;;;;5099112;28;20529;-68
2021/12/16 16:26:16;;;;;;;8.73;5.17;;;3.70;99.90;;;;;;5092053;28;20433;-68
2021/12/16 16:28:43;;;;;;;10.30;4.80;;;3.70;99.90;;;;;;5103738;28;20436;-68
2021/12/16 16:31:16;;;;;;;11.13;5.87;;;3.60;99.90;;;;;;5088096;28;20433;-68
2021/12/16 16:33:41;;;;;;;16.00;5.80;;;3.60;99.90;;;;;;5098898;28;20529;-68
2021/12/16 16:36:12;;;;;;;10.27;4.80;;;3.50;99.90;;;;;;5085090;28;20437;-68
2021/12/16 16:38:52;;;;;;;9.47;4.40;;;3.50;99.90;;;;;;5094419;28;20317;-68
2021/12/16 16:41:20;;;;;;;10.40;5.30;;;3.40;99.90;;;;;;5085640;28;20502;-67
2021/12/16 16:43:53;;;;;;;8.93;4.77;;;3.40;99.90;;;;;;5093822;28;20469;-67
2021/12/16 16:46:37;;;;;;;15.00;5.13;;;3.30;99.90;;;;;;5094040;28;20544;-68
2021/12/16 16:49:08;;;;;;;10.53;5.30;;;3.20;99.90;;;;;;5091038;28;20427;-67
2021/12/16 16:51:38;;;;;;;10.60;5.00;;;3.20;99.90;;;;;;5096583;28;20433;-68
2021/12/16 16:54:27;;;;;;;16.20;5.43;;;3.10;99.90;;;;;;5094009;28;20453;-68
2021/12/16 16:57:13;;;;;;;9.70;5.10;;;3.10;99.90;;;;;;5081168;28;20458;-68
2021/12/16 16:59:42;;;;;;;14.67;7.27;;;3.00;99.90;;;;;;5103089;28;20952;-67
2021/12/16 17:02:30;;;;;;;12.40;5.20;;;3.00;99.90;;;;;;5098486;28;20430;-67
2021/12/16 17:05:05;;;;;;;13.37;5.30;;;2.90;99.90;;;;;;5090853;28;20926;-67
2021/12/16 17:08:02;;;;;;;17.90;5.60;;;2.80;99.90;;;;;;5101716;28;20432;-68
2021/12/16 17:10:28;;;;;;;12.23;5.97;;;2.70;99.90;;;;;;5104457;28;20425;-67
2021/12/16 17:13:15;;;;;;;12.73;5.10;;;2.70;99.90;;;;;;5103570;28;20449;-67
2021/12/16 17:17:11;;;;;;;12.70;5.47;;;2.60;99.90;;;;;;5109006;28;20211;-67